createdAt,value
2018-11-28T00:08:10.301Z,9.7
2018-11-28T00:18:09.507Z,9.8
2018-11-28T00:28:08.718Z,9.8
2018-11-28T00:38:07.927Z,9.4
2018-11-28T00:48:07.141Z,9.3
2018-11-28T00:58:06.351Z,9.3
2018-11-28T01:08:05.561Z,9.3
2018-11-28T01:18:04.767Z,9.3
2018-11-28T01:28:03.977Z,9.1
2018-11-28T01:38:03.198Z,8.9
2018-11-28T01:48:02.412Z,8.9
2018-11-28T01:58:01.610Z,8.8
2018-11-28T02:08:00.822Z,8.7
2018-11-28T02:18:00.039Z,8.6
2018-11-28T02:27:59.243Z,8.5
2018-11-28T02:37:58.459Z,8.6
2018-11-28T02:47:57.669Z,8.5
2018-11-28T02:57:56.877Z,8.3
2018-11-28T03:07:56.087Z,8.2
2018-11-28T03:17:55.299Z,8.1
2018-11-28T03:27:54.512Z,7.9
2018-11-28T03:37:53.712Z,7.8
2018-11-28T03:47:52.938Z,7.8
2018-11-28T03:57:52.145Z,7.8
2018-11-28T04:07:51.348Z,7.7
2018-11-28T04:17:50.554Z,7.7
2018-11-28T04:27:49.771Z,7.5
2018-11-28T04:37:48.982Z,7.1
2018-11-28T04:47:48.202Z,7
2018-11-28T04:57:47.418Z,5.4
2018-11-28T05:07:46.634Z,4.4
2018-11-28T05:17:45.847Z,4.1
2018-11-28T05:27:45.054Z,3.9
2018-11-28T05:37:44.271Z,3.3
2018-11-28T05:47:43.487Z,3.3
2018-11-28T05:57:43.996Z,3.3
2018-11-28T06:07:41.915Z,3.1
2018-11-28T06:17:41.126Z,3.1
2018-11-28T06:27:40.333Z,2.7
2018-11-28T06:37:39.547Z,2.6
2018-11-28T06:47:38.753Z,2.4
2018-11-28T06:57:37.962Z,2.4
2018-11-28T07:07:37.175Z,2.4
2018-11-28T07:17:36.430Z,2.7
2018-11-28T07:27:35.588Z,2.7
2018-11-28T07:37:34.803Z,3.1
2018-11-28T07:47:34.010Z,3
2018-11-28T07:57:33.215Z,3.2
2018-11-28T08:07:32.472Z,2.8
2018-11-28T08:17:31.632Z,2.7
2018-11-28T08:27:30.844Z,2.7
2018-11-28T08:37:30.063Z,2.6
2018-11-28T08:47:29.257Z,2.4
2018-11-28T08:57:28.472Z,2.1
2018-11-28T09:07:27.675Z,2.3
2018-11-28T09:17:26.881Z,2.5
2018-11-28T09:27:26.089Z,2.4
2018-11-28T09:37:25.294Z,2.6
2018-11-28T09:47:24.503Z,2.8
2018-11-28T09:57:23.715Z,2.9
2018-11-28T10:07:22.918Z,3.1
2018-11-28T10:17:22.128Z,3.4
2018-11-28T10:27:21.338Z,3.4
2018-11-28T10:37:20.549Z,3.2
2018-11-28T10:47:19.760Z,3.1
2018-11-28T10:57:18.954Z,3.3
2018-11-28T11:07:18.170Z,3.1
2018-11-28T11:17:17.379Z,2.5
2018-11-28T11:27:16.590Z,2.2
2018-11-28T11:37:15.808Z,2.3
2018-11-28T11:47:15.016Z,2.2
2018-11-28T11:57:14.230Z,2.2
2018-11-28T12:07:13.443Z,2.4
2018-11-28T12:17:12.648Z,2.6
2018-11-28T12:27:11.858Z,2.6
2018-11-28T12:37:11.074Z,2.7
2018-11-28T12:47:10.284Z,2.9
2018-11-28T12:57:09.486Z,2.9
2018-11-28T13:07:08.706Z,2.1
2018-11-28T13:17:07.904Z,1.8
2018-11-28T13:27:07.117Z,1.5
2018-11-28T13:37:06.325Z,0.9
2018-11-28T13:47:05.527Z,0.5
2018-11-28T13:57:05.846Z,0.3
2018-11-28T14:07:03.951Z,0.2
2018-11-28T14:17:03.148Z,0.1
2018-11-28T14:27:02.358Z,0.4
2018-11-28T14:37:01.574Z,0.2
2018-11-28T14:47:00.902Z,0.3
2018-11-28T14:56:59.986Z,0.1
2018-11-28T15:06:59.192Z,0.1
2018-11-28T15:16:58.405Z,0.1
2018-11-28T15:26:57.608Z,0.2
2018-11-28T15:36:56.819Z,0.4
2018-11-28T15:46:56.025Z,0.1
2018-11-28T15:56:55.235Z,-0.4
2018-11-28T16:06:54.448Z,0.2
2018-11-28T16:16:53.658Z,1.8
2018-11-28T16:26:53.272Z,2.8
2018-11-28T16:36:52.082Z,3.4
2018-11-28T16:46:51.704Z,3.9
2018-11-28T16:56:50.501Z,4
2018-11-28T17:06:49.719Z,3.9
2018-11-28T17:16:48.925Z,3.9
2018-11-28T17:26:48.139Z,3.8
2018-11-28T17:36:47.356Z,3.9
2018-11-28T17:46:46.566Z,3.7
2018-11-28T17:56:45.787Z,3.5
2018-11-28T18:06:44.993Z,3.6
2018-11-28T18:16:44.269Z,3.8
2018-11-28T18:26:43.433Z,3.8
2018-11-28T18:36:42.641Z,3.7
2018-11-28T18:46:41.850Z,3.6
2018-11-28T18:56:41.079Z,3.4
2018-11-28T19:06:40.287Z,3.6
2018-11-28T19:16:39.506Z,3.8
2018-11-28T19:26:38.730Z,4
2018-11-28T19:36:37.955Z,4
2018-11-28T19:46:37.171Z,3.9
2018-11-28T19:56:36.401Z,4
2018-11-28T20:06:35.621Z,4.1
2018-11-28T20:16:34.853Z,4
2018-11-28T20:26:34.050Z,4
2018-11-28T20:36:33.307Z,3.8
2018-11-28T20:46:32.489Z,3.7
2018-11-28T20:56:31.699Z,3.6
2018-11-28T21:06:30.949Z,3.5
2018-11-28T21:16:30.119Z,3.4
2018-11-28T21:26:29.338Z,3.3
2018-11-28T21:36:28.552Z,3
2018-11-28T21:46:27.767Z,2.9
2018-11-28T21:56:26.967Z,2.9
2018-11-28T22:06:26.179Z,2.9
2018-11-28T22:16:25.394Z,3
2018-11-28T22:26:24.603Z,3.3
2018-11-28T22:36:23.817Z,3.3
2018-11-28T22:46:23.023Z,3.2
2018-11-28T22:56:22.241Z,3.2
2018-11-28T23:06:21.452Z,3.3
2018-11-28T23:16:20.660Z,3.3
2018-11-28T23:26:19.871Z,3.4
2018-11-28T23:36:19.080Z,3.2
2018-11-28T23:46:18.286Z,2.9
2018-11-28T23:56:17.499Z,2.8
